sensor_id;sensor_type;location;lat;lon;timestamp;P1;durP1;ratioP1;P2;durP2;ratioP2
74064;SDS011;62421;51.412;5.432;2022-11-20T00:00:51;18.90;;;9.68;;
74064;SDS011;62421;51.412;5.432;2022-11-20T00:03:16;19.80;;;10.23;;
74064;SDS011;62421;51.412;5.432;2022-11-20T00:05:42;20.00;;;9.45;;
74064;SDS011;62421;51.412;5.432;2022-11-20T00:08:08;19.63;;;9.63;;
74064;SDS011;62421;51.412;5.432;2022-11-20T00:10:35;18.87;;;9.67;;
74064;SDS011;62421;51.412;5.432;2022-11-20T00:13:02;17.38;;;9.25;;
74064;SDS011;62421;51.412;5.432;2022-11-20T00:15:27;17.37;;;9.23;;
74064;SDS011;62421;51.412;5.432;2022-11-20T00:17:52;20.20;;;10.07;;
74064;SDS011;62421;51.412;5.432;2022-11-20T00:20:18;26.17;;;11.40;;
74064;SDS011;62421;51.412;5.432;2022-11-20T00:22:43;21.00;;;9.85;;
74064;SDS011;62421;51.412;5.432;2022-11-20T00:25:09;19.20;;;9.93;;
74064;SDS011;62421;51.412;5.432;2022-11-20T00:27:34;19.27;;;10.43;;
74064;SDS011;62421;51.412;5.432;2022-11-20T00:30:00;20.27;;;9.77;;
74064;SDS011;62421;51.412;5.432;2022-11-20T00:32:25;18.90;;;9.37;;
74064;SDS011;62421;51.412;5.432;2022-11-20T00:34:50;18.57;;;9.63;;
74064;SDS011;62421;51.412;5.432;2022-11-20T00:37:16;19.70;;;10.47;;
74064;SDS011;62421;51.412;5.432;2022-11-20T00:39:41;22.30;;;10.60;;
74064;SDS011;62421;51.412;5.432;2022-11-20T00:42:06;23.10;;;9.70;;
74064;SDS011;62421;51.412;5.432;2022-11-20T00:44:31;18.57;;;9.93;;
74064;SDS011;62421;51.412;5.432;2022-11-20T00:46:57;23.17;;;10.80;;
74064;SDS011;62421;51.412;5.432;2022-11-20T00:49:22;21.03;;;10.63;;
74064;SDS011;62421;51.412;5.432;2022-11-20T00:51:47;19.00;;;9.80;;
74064;SDS011;62421;51.412;5.432;2022-11-20T00:54:13;18.40;;;10.23;;
74064;SDS011;62421;51.412;5.432;2022-11-20T00:56:38;17.97;;;9.77;;
74064;SDS011;62421;51.412;5.432;2022-11-20T00:59:03;16.67;;;9.23;;
74064;SDS011;62421;51.412;5.432;2022-11-20T01:01:29;19.80;;;10.00;;
74064;SDS011;62421;51.412;5.432;2022-11-20T01:03:55;20.60;;;10.43;;
74064;SDS011;62421;51.412;5.432;2022-11-20T01:06:32;20.10;;;10.45;;
74064;SDS011;62421;51.412;5.432;2022-11-20T01:09:00;18.42;;;10.07;;
74064;SDS011;62421;51.412;5.432;2022-11-20T01:11:29;18.37;;;9.70;;
74064;SDS011;62421;51.412;5.432;2022-11-20T01:13:57;20.85;;;10.48;;
74064;SDS011;62421;51.412;5.432;2022-11-20T01:18:50;19.83;;;10.03;;
74064;SDS011;62421;51.412;5.432;2022-11-20T01:21:37;19.08;;;10.68;;
74064;SDS011;62421;51.412;5.432;2022-11-20T01:24:04;17.52;;;9.98;;
74064;SDS011;62421;51.412;5.432;2022-11-20T01:26:33;20.80;;;10.45;;
74064;SDS011;62421;51.412;5.432;2022-11-20T01:29:00;21.98;;;10.65;;
74064;SDS011;62421;51.412;5.432;2022-11-20T01:31:27;22.88;;;11.68;;
74064;SDS011;62421;51.412;5.432;2022-11-20T01:33:53;24.57;;;11.37;;
74064;SDS011;62421;51.412;5.432;2022-11-20T01:36:21;21.80;;;11.32;;
74064;SDS011;62421;51.412;5.432;2022-11-20T01:38:51;19.70;;;9.63;;
74064;SDS011;62421;51.412;5.432;2022-11-20T01:41:17;22.70;;;10.23;;
74064;SDS011;62421;51.412;5.432;2022-11-20T01:44:04;21.60;;;10.50;;
74064;SDS011;62421;51.412;5.432;2022-11-20T01:46:33;24.52;;;11.38;;
74064;SDS011;62421;51.412;5.432;2022-11-20T01:49:08;22.52;;;10.70;;
74064;SDS011;62421;51.412;5.432;2022-11-20T01:51:39;21.90;;;9.95;;
74064;SDS011;62421;51.412;5.432;2022-11-20T01:54:10;20.17;;;10.32;;
74064;SDS011;62421;51.412;5.432;2022-11-20T01:56:40;19.75;;;10.48;;
74064;SDS011;62421;51.412;5.432;2022-11-20T01:59:09;22.27;;;11.07;;
74064;SDS011;62421;51.412;5.432;2022-11-20T02:01:36;20.23;;;10.75;;
74064;SDS011;62421;51.412;5.432;2022-11-20T02:04:04;23.15;;;11.93;;
74064;SDS011;62421;51.412;5.432;2022-11-20T02:06:35;25.98;;;12.00;;
74064;SDS011;62421;51.412;5.432;2022-11-20T02:09:07;22.13;;;11.70;;
74064;SDS011;62421;51.412;5.432;2022-11-20T02:11:32;25.57;;;12.03;;
74064;SDS011;62421;51.412;5.432;2022-11-20T02:13:58;22.95;;;10.82;;
74064;SDS011;62421;51.412;5.432;2022-11-20T02:16:25;30.80;;;11.35;;
74064;SDS011;62421;51.412;5.432;2022-11-20T02:18:54;19.05;;;11.18;;
74064;SDS011;62421;51.412;5.432;2022-11-20T02:21:28;28.30;;;11.80;;
74064;SDS011;62421;51.412;5.432;2022-11-20T02:24:00;23.15;;;10.95;;
74064;SDS011;62421;51.412;5.432;2022-11-20T02:26:33;24.25;;;11.68;;
74064;SDS011;62421;51.412;5.432;2022-11-20T02:29:03;23.00;;;11.52;;
74064;SDS011;62421;51.412;5.432;2022-11-20T02:31:28;22.90;;;11.87;;
74064;SDS011;62421;51.412;5.432;2022-11-20T02:33:57;22.13;;;11.27;;
74064;SDS011;62421;51.412;5.432;2022-11-20T02:36:23;22.73;;;10.98;;
74064;SDS011;62421;51.412;5.432;2022-11-20T02:38:51;19.70;;;11.10;;
74064;SDS011;62421;51.412;5.432;2022-11-20T02:41:16;24.53;;;11.30;;
74064;SDS011;62421;51.412;5.432;2022-11-20T02:43:41;27.87;;;10.83;;
74064;SDS011;62421;51.412;5.432;2022-11-20T02:46:07;20.33;;;10.87;;
74064;SDS011;62421;51.412;5.432;2022-11-20T02:48:33;24.37;;;11.00;;
74064;SDS011;62421;51.412;5.432;2022-11-20T02:50:58;23.77;;;11.55;;
74064;SDS011;62421;51.412;5.432;2022-11-20T02:53:24;23.63;;;12.20;;
74064;SDS011;62421;51.412;5.432;2022-11-20T02:55:49;23.37;;;11.80;;
74064;SDS011;62421;51.412;5.432;2022-11-20T02:58:14;25.00;;;10.73;;
74064;SDS011;62421;51.412;5.432;2022-11-20T03:00:40;24.53;;;11.63;;
74064;SDS011;62421;51.412;5.432;2022-11-20T03:03:05;22.27;;;10.97;;
74064;SDS011;62421;51.412;5.432;2022-11-20T03:05:30;19.67;;;10.80;;
74064;SDS011;62421;51.412;5.432;2022-11-20T03:07:56;22.23;;;10.93;;
74064;SDS011;62421;51.412;5.432;2022-11-20T03:10:21;23.45;;;11.70;;
74064;SDS011;62421;51.412;5.432;2022-11-20T03:12:46;21.05;;;11.55;;
74064;SDS011;62421;51.412;5.432;2022-11-20T03:15:12;22.70;;;11.73;;
74064;SDS011;62421;51.412;5.432;2022-11-20T03:17:37;24.87;;;11.43;;
74064;SDS011;62421;51.412;5.432;2022-11-20T03:20:02;22.47;;;10.30;;
74064;SDS011;62421;51.412;5.432;2022-11-20T03:22:28;22.77;;;11.23;;
74064;SDS011;62421;51.412;5.432;2022-11-20T03:24:54;21.17;;;10.02;;
74064;SDS011;62421;51.412;5.432;2022-11-20T03:27:20;20.60;;;10.10;;
74064;SDS011;62421;51.412;5.432;2022-11-20T03:29:45;20.93;;;10.57;;
74064;SDS011;62421;51.412;5.432;2022-11-20T03:32:10;19.00;;;9.97;;
74064;SDS011;62421;51.412;5.432;2022-11-20T03:34:36;18.10;;;9.77;;
74064;SDS011;62421;51.412;5.432;2022-11-20T03:37:01;25.43;;;11.33;;
74064;SDS011;62421;51.412;5.432;2022-11-20T03:39:26;21.33;;;10.43;;
74064;SDS011;62421;51.412;5.432;2022-11-20T03:41:52;20.50;;;10.30;;
74064;SDS011;62421;51.412;5.432;2022-11-20T03:44:17;21.27;;;10.53;;
74064;SDS011;62421;51.412;5.432;2022-11-20T03:46:45;20.70;;;11.35;;
74064;SDS011;62421;51.412;5.432;2022-11-20T03:49:11;20.03;;;10.20;;
74064;SDS011;62421;51.412;5.432;2022-11-20T03:51:36;26.07;;;11.10;;
74064;SDS011;62421;51.412;5.432;2022-11-20T03:54:03;22.40;;;10.57;;
74064;SDS011;62421;51.412;5.432;2022-11-20T03:56:34;22.45;;;11.07;;
74064;SDS011;62421;51.412;5.432;2022-11-20T03:59:01;22.50;;;11.35;;
74064;SDS011;62421;51.412;5.432;2022-11-20T04:01:28;22.50;;;11.63;;
74064;SDS011;62421;51.412;5.432;2022-11-20T04:03:56;20.05;;;10.88;;
74064;SDS011;62421;51.412;5.432;2022-11-20T04:06:23;24.08;;;12.05;;
74064;SDS011;62421;51.412;5.432;2022-11-20T04:08:50;23.73;;;11.57;;
74064;SDS011;62421;51.412;5.432;2022-11-20T04:13:41;23.30;;;12.07;;
74064;SDS011;62421;51.412;5.432;2022-11-20T04:16:08;21.63;;;11.20;;
74064;SDS011;62421;51.412;5.432;2022-11-20T04:18:34;21.07;;;11.07;;
74064;SDS011;62421;51.412;5.432;2022-11-20T04:21:00;24.08;;;11.23;;
74064;SDS011;62421;51.412;5.432;2022-11-20T04:23:26;23.67;;;11.10;;
74064;SDS011;62421;51.412;5.432;2022-11-20T04:25:52;22.63;;;11.23;;
74064;SDS011;62421;51.412;5.432;2022-11-20T04:28:17;21.57;;;10.63;;
74064;SDS011;62421;51.412;5.432;2022-11-20T04:30:43;21.67;;;10.93;;
74064;SDS011;62421;51.412;5.432;2022-11-20T04:33:08;22.73;;;11.10;;
74064;SDS011;62421;51.412;5.432;2022-11-20T04:35:34;27.83;;;11.17;;
74064;SDS011;62421;51.412;5.432;2022-11-20T04:38:00;23.23;;;11.30;;
74064;SDS011;62421;51.412;5.432;2022-11-20T04:40:25;19.80;;;10.95;;
74064;SDS011;62421;51.412;5.432;2022-11-20T04:42:51;21.37;;;10.87;;
74064;SDS011;62421;51.412;5.432;2022-11-20T04:45:16;24.97;;;11.50;;
74064;SDS011;62421;51.412;5.432;2022-11-20T04:47:41;20.87;;;10.67;;
74064;SDS011;62421;51.412;5.432;2022-11-20T04:50:07;23.23;;;11.20;;
74064;SDS011;62421;51.412;5.432;2022-11-20T04:52:32;20.40;;;10.48;;
74064;SDS011;62421;51.412;5.432;2022-11-20T04:54:58;22.87;;;11.30;;
74064;SDS011;62421;51.412;5.432;2022-11-20T04:57:23;22.03;;;11.63;;
74064;SDS011;62421;51.412;5.432;2022-11-20T04:59:48;20.00;;;10.70;;
74064;SDS011;62421;51.412;5.432;2022-11-20T05:02:14;21.93;;;11.70;;
74064;SDS011;62421;51.412;5.432;2022-11-20T05:04:39;22.43;;;11.53;;
74064;SDS011;62421;51.412;5.432;2022-11-20T05:07:04;22.33;;;11.77;;
74064;SDS011;62421;51.412;5.432;2022-11-20T05:09:30;23.27;;;12.73;;
74064;SDS011;62421;51.412;5.432;2022-11-20T05:11:55;21.53;;;11.47;;
74064;SDS011;62421;51.412;5.432;2022-11-20T05:14:20;21.92;;;11.43;;
74064;SDS011;62421;51.412;5.432;2022-11-20T05:16:46;19.27;;;10.52;;
74064;SDS011;62421;51.412;5.432;2022-11-20T05:19:11;23.40;;;10.60;;
74064;SDS011;62421;51.412;5.432;2022-11-20T05:21:36;20.50;;;10.83;;
74064;SDS011;62421;51.412;5.432;2022-11-20T05:24:02;20.83;;;11.23;;
74064;SDS011;62421;51.412;5.432;2022-11-20T05:26:27;23.30;;;10.73;;
74064;SDS011;62421;51.412;5.432;2022-11-20T05:28:52;20.33;;;10.80;;
74064;SDS011;62421;51.412;5.432;2022-11-20T05:31:21;22.57;;;11.10;;
74064;SDS011;62421;51.412;5.432;2022-11-20T05:33:47;21.90;;;11.60;;
74064;SDS011;62421;51.412;5.432;2022-11-20T05:36:13;24.53;;;11.43;;
74064;SDS011;62421;51.412;5.432;2022-11-20T05:38:39;25.33;;;12.05;;
74064;SDS011;62421;51.412;5.432;2022-11-20T05:43:34;21.15;;;10.77;;
74064;SDS011;62421;51.412;5.432;2022-11-20T05:46:01;19.52;;;10.85;;
74064;SDS011;62421;51.412;5.432;2022-11-20T05:48:27;19.30;;;10.52;;
74064;SDS011;62421;51.412;5.432;2022-11-20T05:50:53;22.33;;;10.73;;
74064;SDS011;62421;51.412;5.432;2022-11-20T05:53:18;19.93;;;10.63;;
74064;SDS011;62421;51.412;5.432;2022-11-20T05:55:43;23.67;;;11.00;;
74064;SDS011;62421;51.412;5.432;2022-11-20T05:58:09;21.07;;;11.37;;
74064;SDS011;62421;51.412;5.432;2022-11-20T06:00:34;21.87;;;11.07;;
74064;SDS011;62421;51.412;5.432;2022-11-20T06:03:00;22.98;;;11.70;;
74064;SDS011;62421;51.412;5.432;2022-11-20T06:05:25;22.80;;;10.87;;
74064;SDS011;62421;51.412;5.432;2022-11-20T06:07:51;20.60;;;10.47;;
74064;SDS011;62421;51.412;5.432;2022-11-20T06:10:16;25.13;;;11.47;;
74064;SDS011;62421;51.412;5.432;2022-11-20T06:12:41;19.67;;;10.23;;
74064;SDS011;62421;51.412;5.432;2022-11-20T06:15:07;23.27;;;10.93;;
74064;SDS011;62421;51.412;5.432;2022-11-20T06:17:32;22.80;;;10.68;;
74064;SDS011;62421;51.412;5.432;2022-11-20T06:19:58;19.60;;;10.43;;
74064;SDS011;62421;51.412;5.432;2022-11-20T06:22:23;24.40;;;11.57;;
74064;SDS011;62421;51.412;5.432;2022-11-20T06:24:48;20.50;;;11.40;;
74064;SDS011;62421;51.412;5.432;2022-11-20T06:27:14;20.60;;;11.20;;
74064;SDS011;62421;51.412;5.432;2022-11-20T06:29:39;24.45;;;11.95;;
74064;SDS011;62421;51.412;5.432;2022-11-20T06:32:05;18.70;;;10.10;;
74064;SDS011;62421;51.412;5.432;2022-11-20T06:34:30;21.67;;;10.87;;
74064;SDS011;62421;51.412;5.432;2022-11-20T06:36:55;22.33;;;11.33;;
74064;SDS011;62421;51.412;5.432;2022-11-20T06:39:20;21.50;;;10.90;;
74064;SDS011;62421;51.412;5.432;2022-11-20T06:41:46;20.97;;;10.67;;
74064;SDS011;62421;51.412;5.432;2022-11-20T06:44:11;19.83;;;10.53;;
74064;SDS011;62421;51.412;5.432;2022-11-20T06:46:36;21.10;;;10.80;;
74064;SDS011;62421;51.412;5.432;2022-11-20T06:49:02;23.43;;;11.80;;
74064;SDS011;62421;51.412;5.432;2022-11-20T06:51:27;19.77;;;10.40;;
74064;SDS011;62421;51.412;5.432;2022-11-20T06:53:52;19.67;;;10.13;;
74064;SDS011;62421;51.412;5.432;2022-11-20T06:56:18;24.67;;;11.50;;
74064;SDS011;62421;51.412;5.432;2022-11-20T06:58:43;20.45;;;11.63;;
74064;SDS011;62421;51.412;5.432;2022-11-20T07:01:10;22.40;;;11.50;;
74064;SDS011;62421;51.412;5.432;2022-11-20T07:03:37;22.63;;;11.88;;
74064;SDS011;62421;51.412;5.432;2022-11-20T07:06:02;21.00;;;11.52;;
74064;SDS011;62421;51.412;5.432;2022-11-20T07:08:29;22.13;;;10.98;;
74064;SDS011;62421;51.412;5.432;2022-11-20T07:10:58;22.65;;;11.60;;
74064;SDS011;62421;51.412;5.432;2022-11-20T07:13:24;21.03;;;11.33;;
74064;SDS011;62421;51.412;5.432;2022-11-20T07:15:50;20.60;;;10.48;;
74064;SDS011;62421;51.412;5.432;2022-11-20T07:18:16;22.67;;;11.97;;
74064;SDS011;62421;51.412;5.432;2022-11-20T07:20:41;22.30;;;12.67;;
74064;SDS011;62421;51.412;5.432;2022-11-20T07:23:06;22.90;;;10.60;;
74064;SDS011;62421;51.412;5.432;2022-11-20T07:25:31;22.30;;;11.07;;
74064;SDS011;62421;51.412;5.432;2022-11-20T07:27:58;21.73;;;11.40;;
74064;SDS011;62421;51.412;5.432;2022-11-20T07:30:24;20.63;;;10.93;;
74064;SDS011;62421;51.412;5.432;2022-11-20T07:32:53;21.50;;;12.03;;
74064;SDS011;62421;51.412;5.432;2022-11-20T07:35:20;20.00;;;10.93;;
74064;SDS011;62421;51.412;5.432;2022-11-20T07:37:46;20.27;;;10.57;;
74064;SDS011;62421;51.412;5.432;2022-11-20T07:40:12;21.83;;;10.77;;
74064;SDS011;62421;51.412;5.432;2022-11-20T07:42:38;22.63;;;11.98;;
74064;SDS011;62421;51.412;5.432;2022-11-20T07:45:03;22.03;;;11.23;;
74064;SDS011;62421;51.412;5.432;2022-11-20T07:47:34;20.38;;;10.10;;
74064;SDS011;62421;51.412;5.432;2022-11-20T07:50:00;20.02;;;10.65;;
74064;SDS011;62421;51.412;5.432;2022-11-20T07:52:34;24.85;;;12.32;;
74064;SDS011;62421;51.412;5.432;2022-11-20T07:54:59;22.73;;;11.63;;
74064;SDS011;62421;51.412;5.432;2022-11-20T07:57:25;24.03;;;12.60;;
74064;SDS011;62421;51.412;5.432;2022-11-20T07:59:50;22.90;;;11.33;;
74064;SDS011;62421;51.412;5.432;2022-11-20T08:02:15;21.77;;;11.30;;
74064;SDS011;62421;51.412;5.432;2022-11-20T08:04:40;18.90;;;10.50;;
74064;SDS011;62421;51.412;5.432;2022-11-20T08:07:06;22.67;;;12.43;;
74064;SDS011;62421;51.412;5.432;2022-11-20T08:09:31;23.63;;;11.67;;
74064;SDS011;62421;51.412;5.432;2022-11-20T08:11:57;21.40;;;11.50;;
74064;SDS011;62421;51.412;5.432;2022-11-20T08:14:41;22.33;;;11.25;;
74064;SDS011;62421;51.412;5.432;2022-11-20T08:17:06;24.43;;;12.90;;
74064;SDS011;62421;51.412;5.432;2022-11-20T08:19:31;25.87;;;12.33;;
74064;SDS011;62421;51.412;5.432;2022-11-20T08:21:57;21.73;;;11.23;;
74064;SDS011;62421;51.412;5.432;2022-11-20T08:24:23;24.37;;;12.07;;
74064;SDS011;62421;51.412;5.432;2022-11-20T08:26:49;24.50;;;11.68;;
74064;SDS011;62421;51.412;5.432;2022-11-20T08:29:14;26.13;;;11.93;;
74064;SDS011;62421;51.412;5.432;2022-11-20T08:31:41;24.73;;;12.07;;
74064;SDS011;62421;51.412;5.432;2022-11-20T08:34:06;22.95;;;12.57;;
74064;SDS011;62421;51.412;5.432;2022-11-20T08:36:32;27.47;;;12.60;;
74064;SDS011;62421;51.412;5.432;2022-11-20T08:38:59;23.77;;;13.03;;
74064;SDS011;62421;51.412;5.432;2022-11-20T08:41:25;23.23;;;11.82;;
74064;SDS011;62421;51.412;5.432;2022-11-20T08:44:01;25.40;;;13.03;;
74064;SDS011;62421;51.412;5.432;2022-11-20T08:46:31;23.83;;;11.30;;
74064;SDS011;62421;51.412;5.432;2022-11-20T08:48:59;28.88;;;13.45;;
74064;SDS011;62421;51.412;5.432;2022-11-20T08:51:24;26.87;;;12.00;;
74064;SDS011;62421;51.412;5.432;2022-11-20T08:53:50;29.95;;;13.23;;
74064;SDS011;62421;51.412;5.432;2022-11-20T08:56:15;24.90;;;12.67;;
74064;SDS011;62421;51.412;5.432;2022-11-20T08:58:41;28.27;;;12.93;;
74064;SDS011;62421;51.412;5.432;2022-11-20T09:01:07;27.75;;;13.77;;
74064;SDS011;62421;51.412;5.432;2022-11-20T09:03:32;25.97;;;12.07;;
74064;SDS011;62421;51.412;5.432;2022-11-20T09:06:01;30.33;;;14.37;;
74064;SDS011;62421;51.412;5.432;2022-11-20T09:08:28;31.48;;;12.95;;
74064;SDS011;62421;51.412;5.432;2022-11-20T09:10:55;33.10;;;15.80;;
74064;SDS011;62421;51.412;5.432;2022-11-20T09:13:22;43.17;;;16.38;;
74064;SDS011;62421;51.412;5.432;2022-11-20T09:15:55;40.55;;;17.30;;
74064;SDS011;62421;51.412;5.432;2022-11-20T09:18:22;40.30;;;15.68;;
74064;SDS011;62421;51.412;5.432;2022-11-20T09:20:48;48.40;;;17.27;;
74064;SDS011;62421;51.412;5.432;2022-11-20T09:23:14;49.40;;;18.63;;
74064;SDS011;62421;51.412;5.432;2022-11-20T09:25:40;51.95;;;18.92;;
74064;SDS011;62421;51.412;5.432;2022-11-20T09:28:05;54.55;;;20.15;;
74064;SDS011;62421;51.412;5.432;2022-11-20T09:30:31;39.40;;;17.67;;
74064;SDS011;62421;51.412;5.432;2022-11-20T09:32:56;55.87;;;20.27;;
74064;SDS011;62421;51.412;5.432;2022-11-20T09:35:22;44.97;;;19.00;;
74064;SDS011;62421;51.412;5.432;2022-11-20T09:37:47;53.63;;;20.20;;
74064;SDS011;62421;51.412;5.432;2022-11-20T09:40:18;54.97;;;20.63;;
74064;SDS011;62421;51.412;5.432;2022-11-20T09:42:59;48.97;;;18.38;;
74064;SDS011;62421;51.412;5.432;2022-11-20T09:50:52;55.00;;;20.47;;
74064;SDS011;62421;51.412;5.432;2022-11-20T09:56:11;51.75;;;20.40;;
74064;SDS011;62421;51.412;5.432;2022-11-20T09:58:39;48.72;;;19.48;;
74064;SDS011;62421;51.412;5.432;2022-11-20T10:01:20;53.42;;;21.05;;
74064;SDS011;62421;51.412;5.432;2022-11-20T10:03:58;61.40;;;20.43;;
74064;SDS011;62421;51.412;5.432;2022-11-20T10:06:29;49.28;;;20.00;;
74064;SDS011;62421;51.412;5.432;2022-11-20T10:09:00;56.92;;;20.33;;
74064;SDS011;62421;51.412;5.432;2022-11-20T10:14:36;48.75;;;21.50;;
74064;SDS011;62421;51.412;5.432;2022-11-20T10:17:15;53.97;;;20.13;;
74064;SDS011;62421;51.412;5.432;2022-11-20T10:20:02;51.08;;;21.08;;
74064;SDS011;62421;51.412;5.432;2022-11-20T10:25:19;57.28;;;21.10;;
74064;SDS011;62421;51.412;5.432;2022-11-20T10:30:36;48.40;;;18.95;;
74064;SDS011;62421;51.412;5.432;2022-11-20T10:33:26;46.13;;;20.15;;
74064;SDS011;62421;51.412;5.432;2022-11-20T10:35:53;48.03;;;20.27;;
74064;SDS011;62421;51.412;5.432;2022-11-20T10:38:44;51.08;;;21.17;;
74064;SDS011;62421;51.412;5.432;2022-11-20T10:41:23;42.67;;;19.73;;
74064;SDS011;62421;51.412;5.432;2022-11-20T10:43:54;46.15;;;19.77;;
74064;SDS011;62421;51.412;5.432;2022-11-20T10:46:33;47.42;;;21.38;;
74064;SDS011;62421;51.412;5.432;2022-11-20T10:49:04;42.70;;;19.30;;
74064;SDS011;62421;51.412;5.432;2022-11-20T10:54:53;46.73;;;19.83;;
74064;SDS011;62421;51.412;5.432;2022-11-20T11:00:22;49.30;;;20.25;;
74064;SDS011;62421;51.412;5.432;2022-11-20T11:02:48;43.83;;;20.47;;
74064;SDS011;62421;51.412;5.432;2022-11-20T11:05:18;49.25;;;21.00;;
74064;SDS011;62421;51.412;5.432;2022-11-20T11:07:54;51.50;;;20.35;;
74064;SDS011;62421;51.412;5.432;2022-11-20T11:13:07;48.07;;;19.40;;
74064;SDS011;62421;51.412;5.432;2022-11-20T11:15:39;46.45;;;20.42;;
74064;SDS011;62421;51.412;5.432;2022-11-20T11:18:09;46.70;;;20.13;;
74064;SDS011;62421;51.412;5.432;2022-11-20T11:20:35;55.58;;;21.73;;
74064;SDS011;62421;51.412;5.432;2022-11-20T11:23:01;48.08;;;20.23;;
74064;SDS011;62421;51.412;5.432;2022-11-20T11:27:59;49.45;;;19.48;;
74064;SDS011;62421;51.412;5.432;2022-11-20T11:30:30;48.80;;;20.63;;
74064;SDS011;62421;51.412;5.432;2022-11-20T11:33:08;46.55;;;19.15;;
74064;SDS011;62421;51.412;5.432;2022-11-20T11:35:39;50.83;;;20.13;;
74064;SDS011;62421;51.412;5.432;2022-11-20T11:38:12;50.75;;;19.42;;
74064;SDS011;62421;51.412;5.432;2022-11-20T11:40:42;45.72;;;19.50;;
74064;SDS011;62421;51.412;5.432;2022-11-20T11:43:16;48.07;;;19.23;;
74064;SDS011;62421;51.412;5.432;2022-11-20T11:46:04;50.30;;;19.05;;
74064;SDS011;62421;51.412;5.432;2022-11-20T11:48:55;45.30;;;18.90;;
74064;SDS011;62421;51.412;5.432;2022-11-20T11:51:22;49.47;;;20.90;;
74064;SDS011;62421;51.412;5.432;2022-11-20T11:53:47;45.13;;;19.10;;
74064;SDS011;62421;51.412;5.432;2022-11-20T11:56:13;44.15;;;19.27;;
74064;SDS011;62421;51.412;5.432;2022-11-20T12:06:47;51.08;;;19.25;;
74064;SDS011;62421;51.412;5.432;2022-11-20T12:09:16;50.33;;;19.08;;
74064;SDS011;62421;51.412;5.432;2022-11-20T12:14:43;55.40;;;20.23;;
74064;SDS011;62421;51.412;5.432;2022-11-20T12:17:12;48.55;;;19.08;;
74064;SDS011;62421;51.412;5.432;2022-11-20T12:19:39;45.45;;;19.45;;
74064;SDS011;62421;51.412;5.432;2022-11-20T12:22:19;49.63;;;19.77;;
74064;SDS011;62421;51.412;5.432;2022-11-20T12:25:14;44.37;;;18.53;;
74064;SDS011;62421;51.412;5.432;2022-11-20T12:30:16;50.15;;;19.70;;
74064;SDS011;62421;51.412;5.432;2022-11-20T12:35:44;56.58;;;20.50;;
74064;SDS011;62421;51.412;5.432;2022-11-20T12:41:06;49.50;;;18.92;;
74064;SDS011;62421;51.412;5.432;2022-11-20T12:44:04;48.47;;;19.83;;
74064;SDS011;62421;51.412;5.432;2022-11-20T12:46:56;45.58;;;18.02;;
74064;SDS011;62421;51.412;5.432;2022-11-20T12:49:47;58.60;;;20.25;;
74064;SDS011;62421;51.412;5.432;2022-11-20T12:55:28;53.50;;;19.95;;
74064;SDS011;62421;51.412;5.432;2022-11-20T12:58:11;55.67;;;20.42;;
74064;SDS011;62421;51.412;5.432;2022-11-20T13:00:47;60.30;;;20.50;;
74064;SDS011;62421;51.412;5.432;2022-11-20T13:03:41;50.57;;;19.47;;
74064;SDS011;62421;51.412;5.432;2022-11-20T13:06:17;51.10;;;18.77;;
74064;SDS011;62421;51.412;5.432;2022-11-20T13:08:52;52.72;;;20.23;;
74064;SDS011;62421;51.412;5.432;2022-11-20T13:11:23;56.63;;;19.77;;
74064;SDS011;62421;51.412;5.432;2022-11-20T13:14:03;57.97;;;20.48;;
74064;SDS011;62421;51.412;5.432;2022-11-20T13:16:38;55.00;;;19.83;;
74064;SDS011;62421;51.412;5.432;2022-11-20T13:19:12;53.53;;;19.23;;
74064;SDS011;62421;51.412;5.432;2022-11-20T13:21:43;55.33;;;19.15;;
74064;SDS011;62421;51.412;5.432;2022-11-20T13:24:21;60.53;;;21.77;;
74064;SDS011;62421;51.412;5.432;2022-11-20T13:29:37;64.80;;;21.63;;
74064;SDS011;62421;51.412;5.432;2022-11-20T13:34:38;54.80;;;19.33;;
74064;SDS011;62421;51.412;5.432;2022-11-20T13:37:04;55.15;;;20.58;;
74064;SDS011;62421;51.412;5.432;2022-11-20T13:39:31;53.00;;;20.27;;
74064;SDS011;62421;51.412;5.432;2022-11-20T13:42:02;52.70;;;21.50;;
74064;SDS011;62421;51.412;5.432;2022-11-20T13:44:51;49.97;;;19.60;;
74064;SDS011;62421;51.412;5.432;2022-11-20T13:47:20;55.55;;;18.63;;
74064;SDS011;62421;51.412;5.432;2022-11-20T13:49:51;51.78;;;21.15;;
74064;SDS011;62421;51.412;5.432;2022-11-20T13:55:01;53.78;;;20.23;;
74064;SDS011;62421;51.412;5.432;2022-11-20T14:00:20;56.10;;;20.67;;
74064;SDS011;62421;51.412;5.432;2022-11-20T14:05:52;56.25;;;22.20;;
74064;SDS011;62421;51.412;5.432;2022-11-20T14:09:10;53.20;;;18.73;;
74064;SDS011;62421;51.412;5.432;2022-11-20T14:11:20;59.63;;;21.40;;
74064;SDS011;62421;51.412;5.432;2022-11-20T14:16:31;50.53;;;19.45;;
74064;SDS011;62421;51.412;5.432;2022-11-20T14:19:17;54.83;;;20.58;;
74064;SDS011;62421;51.412;5.432;2022-11-20T14:21:44;48.58;;;19.88;;
74064;SDS011;62421;51.412;5.432;2022-11-20T14:24:11;56.47;;;21.50;;
74064;SDS011;62421;51.412;5.432;2022-11-20T14:26:41;55.42;;;20.48;;
74064;SDS011;62421;51.412;5.432;2022-11-20T14:29:17;55.38;;;20.83;;
74064;SDS011;62421;51.412;5.432;2022-11-20T14:31:45;54.13;;;20.40;;
74064;SDS011;62421;51.412;5.432;2022-11-20T14:34:15;56.72;;;20.67;;
74064;SDS011;62421;51.412;5.432;2022-11-20T14:36:44;52.30;;;20.07;;
74064;SDS011;62421;51.412;5.432;2022-11-20T14:39:20;60.38;;;19.67;;
74064;SDS011;62421;51.412;5.432;2022-11-20T14:41:52;58.40;;;19.73;;
74064;SDS011;62421;51.412;5.432;2022-11-20T14:44:20;56.53;;;20.87;;
74064;SDS011;62421;51.412;5.432;2022-11-20T14:46:48;56.58;;;20.38;;
74064;SDS011;62421;51.412;5.432;2022-11-20T14:49:15;57.95;;;21.63;;
74064;SDS011;62421;51.412;5.432;2022-11-20T14:51:40;60.90;;;22.13;;
74064;SDS011;62421;51.412;5.432;2022-11-20T14:54:10;59.93;;;20.77;;
74064;SDS011;62421;51.412;5.432;2022-11-20T14:56:54;63.95;;;21.50;;
74064;SDS011;62421;51.412;5.432;2022-11-20T14:59:24;61.88;;;20.40;;
74064;SDS011;62421;51.412;5.432;2022-11-20T15:01:55;64.35;;;21.88;;
74064;SDS011;62421;51.412;5.432;2022-11-20T15:04:43;64.97;;;21.57;;
74064;SDS011;62421;51.412;5.432;2022-11-20T15:07:10;64.57;;;21.67;;
74064;SDS011;62421;51.412;5.432;2022-11-20T15:09:35;65.20;;;20.43;;
74064;SDS011;62421;51.412;5.432;2022-11-20T15:12:01;59.30;;;22.50;;
74064;SDS011;62421;51.412;5.432;2022-11-20T15:14:28;69.32;;;24.02;;
74064;SDS011;62421;51.412;5.432;2022-11-20T15:16:55;66.05;;;24.20;;
74064;SDS011;62421;51.412;5.432;2022-11-20T15:19:21;64.30;;;23.27;;
74064;SDS011;62421;51.412;5.432;2022-11-20T15:21:48;61.03;;;22.08;;
74064;SDS011;62421;51.412;5.432;2022-11-20T15:24:14;67.77;;;23.30;;
74064;SDS011;62421;51.412;5.432;2022-11-20T15:26:40;61.03;;;20.83;;
74064;SDS011;62421;51.412;5.432;2022-11-20T15:29:13;57.33;;;19.07;;
74064;SDS011;62421;51.412;5.432;2022-11-20T15:31:43;59.53;;;20.35;;
74064;SDS011;62421;51.412;5.432;2022-11-20T15:34:13;61.13;;;19.05;;
74064;SDS011;62421;51.412;5.432;2022-11-20T15:36:39;58.15;;;19.10;;
74064;SDS011;62421;51.412;5.432;2022-11-20T15:39:05;60.10;;;19.40;;
74064;SDS011;62421;51.412;5.432;2022-11-20T15:41:32;58.85;;;19.98;;
74064;SDS011;62421;51.412;5.432;2022-11-20T15:43:58;56.28;;;19.48;;
74064;SDS011;62421;51.412;5.432;2022-11-20T15:46:26;61.43;;;17.17;;